sensor_id;sensor_type;location;lat;lon;timestamp;temperature;humidity
72772;SHT30;60894;42.544;1.516;2022-08-19T00:00:50;16.91;48.95
72772;SHT30;60894;42.544;1.516;2022-08-19T00:03:17;16.93;49.06
72772;SHT30;60894;42.544;1.516;2022-08-19T00:05:44;16.83;49.54
72772;SHT30;60894;42.544;1.516;2022-08-19T00:08:11;16.80;49.42
72772;SHT30;60894;42.544;1.516;2022-08-19T00:10:39;16.79;49.54
72772;SHT30;60894;42.544;1.516;2022-08-19T00:13:06;16.83;49.30
72772;SHT30;60894;42.544;1.516;2022-08-19T00:15:33;16.83;49.59
72772;SHT30;60894;42.544;1.516;2022-08-19T00:18:00;16.89;49.36
72772;SHT30;60894;42.544;1.516;2022-08-19T00:20:27;16.80;49.46
72772;SHT30;60894;42.544;1.516;2022-08-19T00:22:54;16.87;48.62
72772;SHT30;60894;42.544;1.516;2022-08-19T00:25:21;16.81;48.83
72772;SHT30;60894;42.544;1.516;2022-08-19T00:27:50;16.83;48.73
72772;SHT30;60894;42.544;1.516;2022-08-19T00:30:17;16.86;48.18
72772;SHT30;60894;42.544;1.516;2022-08-19T00:32:44;16.86;48.14
72772;SHT30;60894;42.544;1.516;2022-08-19T00:35:11;16.77;48.15
72772;SHT30;60894;42.544;1.516;2022-08-19T00:37:38;16.80;47.95
72772;SHT30;60894;42.544;1.516;2022-08-19T00:40:11;16.84;48.31
72772;SHT30;60894;42.544;1.516;2022-08-19T00:42:38;16.81;47.99
72772;SHT30;60894;42.544;1.516;2022-08-19T00:45:11;16.70;48.10
72772;SHT30;60894;42.544;1.516;2022-08-19T00:47:39;16.65;48.01
72772;SHT30;60894;42.544;1.516;2022-08-19T00:50:08;16.59;48.15
72772;SHT30;60894;42.544;1.516;2022-08-19T00:52:38;16.56;48.41
72772;SHT30;60894;42.544;1.516;2022-08-19T00:55:09;16.55;48.21
72772;SHT30;60894;42.544;1.516;2022-08-19T00:57:40;16.49;48.29
72772;SHT30;60894;42.544;1.516;2022-08-19T01:00:12;16.49;48.48
72772;SHT30;60894;42.544;1.516;2022-08-19T01:02:41;16.49;48.48
72772;SHT30;60894;42.544;1.516;2022-08-19T01:05:13;16.45;48.91
72772;SHT30;60894;42.544;1.516;2022-08-19T01:07:41;16.45;48.75
72772;SHT30;60894;42.544;1.516;2022-08-19T01:10:13;16.44;48.52
72772;SHT30;60894;42.544;1.516;2022-08-19T01:12:41;16.42;48.64
72772;SHT30;60894;42.544;1.516;2022-08-19T01:15:11;16.38;48.92
72772;SHT30;60894;42.544;1.516;2022-08-19T01:17:39;16.38;48.14
72772;SHT30;60894;42.544;1.516;2022-08-19T01:20:10;16.38;47.90
72772;SHT30;60894;42.544;1.516;2022-08-19T01:22:43;16.33;48.29
72772;SHT30;60894;42.544;1.516;2022-08-19T01:25:12;16.30;48.23
72772;SHT30;60894;42.544;1.516;2022-08-19T01:27:40;16.42;47.97
72772;SHT30;60894;42.544;1.516;2022-08-19T01:30:10;16.32;48.39
72772;SHT30;60894;42.544;1.516;2022-08-19T01:32:38;16.35;48.38
72772;SHT30;60894;42.544;1.516;2022-08-19T01:35:05;16.35;48.48
72772;SHT30;60894;42.544;1.516;2022-08-19T01:37:47;16.41;48.51
72772;SHT30;60894;42.544;1.516;2022-08-19T01:40:14;16.39;48.58
72772;SHT30;60894;42.544;1.516;2022-08-19T01:42:42;16.38;48.40
72772;SHT30;60894;42.544;1.516;2022-08-19T01:45:09;16.36;48.32
72772;SHT30;60894;42.544;1.516;2022-08-19T01:47:36;16.33;48.47
72772;SHT30;60894;42.544;1.516;2022-08-19T01:50:05;16.32;48.46
72772;SHT30;60894;42.544;1.516;2022-08-19T01:52:34;16.26;48.81
72772;SHT30;60894;42.544;1.516;2022-08-19T01:55:04;16.14;49.22
72772;SHT30;60894;42.544;1.516;2022-08-19T01:57:31;16.15;49.28
72772;SHT30;60894;42.544;1.516;2022-08-19T01:59:59;16.15;49.51
72772;SHT30;60894;42.544;1.516;2022-08-19T02:02:27;16.12;49.81
72772;SHT30;60894;42.544;1.516;2022-08-19T02:04:54;16.05;50.69
72772;SHT30;60894;42.544;1.516;2022-08-19T02:07:21;15.98;50.56
72772;SHT30;60894;42.544;1.516;2022-08-19T02:09:48;16.01;50.68
72772;SHT30;60894;42.544;1.516;2022-08-19T02:12:16;15.91;51.43
72772;SHT30;60894;42.544;1.516;2022-08-19T02:14:43;15.70;51.97
72772;SHT30;60894;42.544;1.516;2022-08-19T02:17:10;15.71;52.35
72772;SHT30;60894;42.544;1.516;2022-08-19T02:19:37;15.60;52.58
72772;SHT30;60894;42.544;1.516;2022-08-19T02:22:04;15.64;51.48
72772;SHT30;60894;42.544;1.516;2022-08-19T02:24:32;15.83;50.13
72772;SHT30;60894;42.544;1.516;2022-08-19T02:26:59;15.77;49.60
72772;SHT30;60894;42.544;1.516;2022-08-19T02:29:27;15.86;49.57
72772;SHT30;60894;42.544;1.516;2022-08-19T02:31:54;15.87;49.41
72772;SHT30;60894;42.544;1.516;2022-08-19T02:34:21;15.90;49.46
72772;SHT30;60894;42.544;1.516;2022-08-19T02:36:50;15.86;49.55
72772;SHT30;60894;42.544;1.516;2022-08-19T02:39:17;15.81;49.78
72772;SHT30;60894;42.544;1.516;2022-08-19T02:41:43;15.88;49.58
72772;SHT30;60894;42.544;1.516;2022-08-19T02:44:10;15.87;49.55
72772;SHT30;60894;42.544;1.516;2022-08-19T02:46:39;15.88;49.48
72772;SHT30;60894;42.544;1.516;2022-08-19T02:49:07;15.87;49.70
72772;SHT30;60894;42.544;1.516;2022-08-19T02:51:36;15.74;50.22
72772;SHT30;60894;42.544;1.516;2022-08-19T02:54:04;15.70;50.42
72772;SHT30;60894;42.544;1.516;2022-08-19T02:56:34;15.71;49.91
72772;SHT30;60894;42.544;1.516;2022-08-19T02:59:02;15.68;50.43
72772;SHT30;60894;42.544;1.516;2022-08-19T03:01:40;15.54;50.81
72772;SHT30;60894;42.544;1.516;2022-08-19T03:04:09;15.57;50.48
72772;SHT30;60894;42.544;1.516;2022-08-19T03:06:37;15.56;50.43
72772;SHT30;60894;42.544;1.516;2022-08-19T03:09:04;15.46;50.89
72772;SHT30;60894;42.544;1.516;2022-08-19T03:11:32;15.43;51.23
72772;SHT30;60894;42.544;1.516;2022-08-19T03:13:59;15.39;51.30
72772;SHT30;60894;42.544;1.516;2022-08-19T03:16:30;15.30;52.27
72772;SHT30;60894;42.544;1.516;2022-08-19T03:19:00;15.18;52.71
72772;SHT30;60894;42.544;1.516;2022-08-19T03:21:29;15.09;53.42
72772;SHT30;60894;42.544;1.516;2022-08-19T03:23:58;14.95;53.99
72772;SHT30;60894;42.544;1.516;2022-08-19T03:26:25;14.92;53.86
72772;SHT30;60894;42.544;1.516;2022-08-19T03:28:52;14.88;54.04
72772;SHT30;60894;42.544;1.516;2022-08-19T03:31:21;14.65;54.56
72772;SHT30;60894;42.544;1.516;2022-08-19T03:33:49;14.42;55.59
72772;SHT30;60894;42.544;1.516;2022-08-19T03:36:19;14.31;56.11
72772;SHT30;60894;42.544;1.516;2022-08-19T03:38:50;14.20;56.10
72772;SHT30;60894;42.544;1.516;2022-08-19T03:41:20;14.18;56.05
72772;SHT30;60894;42.544;1.516;2022-08-19T03:43:47;14.13;56.21
72772;SHT30;60894;42.544;1.516;2022-08-19T03:46:17;14.06;56.50
72772;SHT30;60894;42.544;1.516;2022-08-19T03:48:46;14.02;56.37
72772;SHT30;60894;42.544;1.516;2022-08-19T03:51:20;13.97;56.53
72772;SHT30;60894;42.544;1.516;2022-08-19T03:53:48;14.00;56.46
72772;SHT30;60894;42.544;1.516;2022-08-19T03:56:15;13.93;56.75
72772;SHT30;60894;42.544;1.516;2022-08-19T03:58:44;13.93;56.89
72772;SHT30;60894;42.544;1.516;2022-08-19T04:01:13;13.87;57.02
72772;SHT30;60894;42.544;1.516;2022-08-19T04:03:40;13.80;57.18
72772;SHT30;60894;42.544;1.516;2022-08-19T04:06:11;13.80;57.08
72772;SHT30;60894;42.544;1.516;2022-08-19T04:08:41;13.80;56.92
72772;SHT30;60894;42.544;1.516;2022-08-19T04:11:09;13.73;57.15
72772;SHT30;60894;42.544;1.516;2022-08-19T04:13:36;13.67;57.20
72772;SHT30;60894;42.544;1.516;2022-08-19T04:16:04;13.62;57.29
72772;SHT30;60894;42.544;1.516;2022-08-19T04:18:31;13.65;57.61
72772;SHT30;60894;42.544;1.516;2022-08-19T04:20:59;13.55;57.73
72772;SHT30;60894;42.544;1.516;2022-08-19T04:23:26;13.51;58.13
72772;SHT30;60894;42.544;1.516;2022-08-19T04:25:55;13.51;57.92
72772;SHT30;60894;42.544;1.516;2022-08-19T04:28:23;13.55;57.59
72772;SHT30;60894;42.544;1.516;2022-08-19T04:30:53;13.42;57.60
72772;SHT30;60894;42.544;1.516;2022-08-19T04:33:22;13.41;57.56
72772;SHT30;60894;42.544;1.516;2022-08-19T04:35:51;13.35;58.05
72772;SHT30;60894;42.544;1.516;2022-08-19T04:38:20;13.27;59.92
72772;SHT30;60894;42.544;1.516;2022-08-19T04:40:50;13.24;60.12
72772;SHT30;60894;42.544;1.516;2022-08-19T04:43:38;13.35;59.77
72772;SHT30;60894;42.544;1.516;2022-08-19T04:46:07;13.28;60.67
72772;SHT30;60894;42.544;1.516;2022-08-19T04:48:34;13.19;60.82
72772;SHT30;60894;42.544;1.516;2022-08-19T04:51:06;13.21;60.75
72772;SHT30;60894;42.544;1.516;2022-08-19T04:53:35;13.12;60.82
72772;SHT30;60894;42.544;1.516;2022-08-19T04:56:05;13.18;59.95
72772;SHT30;60894;42.544;1.516;2022-08-19T04:58:33;12.93;62.38
72772;SHT30;60894;42.544;1.516;2022-08-19T05:01:02;13.07;61.68
72772;SHT30;60894;42.544;1.516;2022-08-19T05:03:29;13.03;61.39
72772;SHT30;60894;42.544;1.516;2022-08-19T05:06:04;12.91;60.92
72772;SHT30;60894;42.544;1.516;2022-08-19T05:08:34;12.93;61.58
72772;SHT30;60894;42.544;1.516;2022-08-19T05:11:01;12.79;62.49
72772;SHT30;60894;42.544;1.516;2022-08-19T05:13:33;12.77;61.94
72772;SHT30;60894;42.544;1.516;2022-08-19T05:16:01;12.90;61.04
72772;SHT30;60894;42.544;1.516;2022-08-19T05:18:28;12.81;62.80
72772;SHT30;60894;42.544;1.516;2022-08-19T05:21:15;12.83;61.71
72772;SHT30;60894;42.544;1.516;2022-08-19T05:24:00;12.87;61.80
72772;SHT30;60894;42.544;1.516;2022-08-19T05:26:34;12.81;62.78
72772;SHT30;60894;42.544;1.516;2022-08-19T05:29:01;12.72;62.80
72772;SHT30;60894;42.544;1.516;2022-08-19T05:31:30;12.72;62.85
72772;SHT30;60894;42.544;1.516;2022-08-19T05:33:57;12.66;63.05
72772;SHT30;60894;42.544;1.516;2022-08-19T05:36:26;12.61;63.60
72772;SHT30;60894;42.544;1.516;2022-08-19T05:38:54;12.66;63.59
72772;SHT30;60894;42.544;1.516;2022-08-19T05:41:22;12.61;63.66
72772;SHT30;60894;42.544;1.516;2022-08-19T05:43:56;12.66;63.73
72772;SHT30;60894;42.544;1.516;2022-08-19T05:46:23;12.72;63.09
72772;SHT30;60894;42.544;1.516;2022-08-19T05:48:52;12.74;62.94
72772;SHT30;60894;42.544;1.516;2022-08-19T05:51:21;12.83;62.91
72772;SHT30;60894;42.544;1.516;2022-08-19T05:53:49;12.83;62.95
72772;SHT30;60894;42.544;1.516;2022-08-19T05:56:16;12.77;63.16
72772;SHT30;60894;42.544;1.516;2022-08-19T05:58:44;12.66;63.34
72772;SHT30;60894;42.544;1.516;2022-08-19T06:01:20;12.56;63.75
72772;SHT30;60894;42.544;1.516;2022-08-19T06:03:47;12.60;63.94
72772;SHT30;60894;42.544;1.516;2022-08-19T06:06:18;12.68;63.23
72772;SHT30;60894;42.544;1.516;2022-08-19T06:08:45;12.46;63.98
72772;SHT30;60894;42.544;1.516;2022-08-19T06:11:18;12.43;65.32
72772;SHT30;60894;42.544;1.516;2022-08-19T06:13:47;12.53;64.81
72772;SHT30;60894;42.544;1.516;2022-08-19T06:16:16;12.55;64.40
72772;SHT30;60894;42.544;1.516;2022-08-19T06:18:48;12.60;64.10
72772;SHT30;60894;42.544;1.516;2022-08-19T06:21:19;12.63;64.45
72772;SHT30;60894;42.544;1.516;2022-08-19T06:23:46;12.56;64.61
72772;SHT30;60894;42.544;1.516;2022-08-19T06:26:15;12.59;64.52
72772;SHT30;60894;42.544;1.516;2022-08-19T06:28:42;12.59;64.34
72772;SHT30;60894;42.544;1.516;2022-08-19T06:31:12;12.52;64.63
72772;SHT30;60894;42.544;1.516;2022-08-19T06:33:40;12.77;63.68
72772;SHT30;60894;42.544;1.516;2022-08-19T06:36:15;12.76;63.57
72772;SHT30;60894;42.544;1.516;2022-08-19T06:38:43;12.77;64.22
72772;SHT30;60894;42.544;1.516;2022-08-19T06:41:10;12.84;64.29
72772;SHT30;60894;42.544;1.516;2022-08-19T06:43:37;12.93;64.05
72772;SHT30;60894;42.544;1.516;2022-08-19T06:46:10;13.03;63.75
72772;SHT30;60894;42.544;1.516;2022-08-19T06:48:38;13.10;63.37
72772;SHT30;60894;42.544;1.516;2022-08-19T06:51:05;13.24;62.51
72772;SHT30;60894;42.544;1.516;2022-08-19T06:53:33;13.36;61.76
72772;SHT30;60894;42.544;1.516;2022-08-19T06:56:01;13.52;62.42
72772;SHT30;60894;42.544;1.516;2022-08-19T06:58:29;13.65;61.02
72772;SHT30;60894;42.544;1.516;2022-08-19T07:00:58;13.83;61.42
72772;SHT30;60894;42.544;1.516;2022-08-19T07:03:28;13.86;62.02
72772;SHT30;60894;42.544;1.516;2022-08-19T07:05:56;14.06;61.30
72772;SHT30;60894;42.544;1.516;2022-08-19T07:08:24;14.20;59.87
72772;SHT30;60894;42.544;1.516;2022-08-19T07:10:52;14.31;58.92
72772;SHT30;60894;42.544;1.516;2022-08-19T07:13:21;14.45;59.39
72772;SHT30;60894;42.544;1.516;2022-08-19T07:15:48;14.65;59.19
72772;SHT30;60894;42.544;1.516;2022-08-19T07:18:17;14.74;58.43
72772;SHT30;60894;42.544;1.516;2022-08-19T07:20:45;14.88;56.56
72772;SHT30;60894;42.544;1.516;2022-08-19T07:23:12;15.03;55.97
72772;SHT30;60894;42.544;1.516;2022-08-19T07:25:39;15.23;55.65
72772;SHT30;60894;42.544;1.516;2022-08-19T07:28:07;15.35;54.38
72772;SHT30;60894;42.544;1.516;2022-08-19T07:30:37;15.53;53.86
72772;SHT30;60894;42.544;1.516;2022-08-19T07:33:06;15.66;52.89
72772;SHT30;60894;42.544;1.516;2022-08-19T07:35:33;15.78;51.57
72772;SHT30;60894;42.544;1.516;2022-08-19T07:38:00;15.93;51.83
72772;SHT30;60894;42.544;1.516;2022-08-19T07:40:29;16.02;50.65
72772;SHT30;60894;42.544;1.516;2022-08-19T07:42:57;16.21;47.54
72772;SHT30;60894;42.544;1.516;2022-08-19T07:45:24;16.39;47.77
72772;SHT30;60894;42.544;1.516;2022-08-19T07:47:54;16.56;47.88
72772;SHT30;60894;42.544;1.516;2022-08-19T07:50:21;16.77;48.35
72772;SHT30;60894;42.544;1.516;2022-08-19T07:52:49;16.79;47.16
72772;SHT30;60894;42.544;1.516;2022-08-19T07:55:19;16.91;45.82
72772;SHT30;60894;42.544;1.516;2022-08-19T07:57:46;17.04;44.73
72772;SHT30;60894;42.544;1.516;2022-08-19T08:00:14;17.10;43.90
72772;SHT30;60894;42.544;1.516;2022-08-19T08:02:41;17.11;44.06
72772;SHT30;60894;42.544;1.516;2022-08-19T08:05:10;17.20;43.44
72772;SHT30;60894;42.544;1.516;2022-08-19T08:07:55;17.27;43.55
72772;SHT30;60894;42.544;1.516;2022-08-19T08:10:40;17.42;43.77
72772;SHT30;60894;42.544;1.516;2022-08-19T08:13:07;17.64;43.20
72772;SHT30;60894;42.544;1.516;2022-08-19T08:15:35;17.68;42.42
72772;SHT30;60894;42.544;1.516;2022-08-19T08:18:02;17.69;41.85
72772;SHT30;60894;42.544;1.516;2022-08-19T08:20:31;17.96;45.39
72772;SHT30;60894;42.544;1.516;2022-08-19T08:22:58;18.12;42.88
72772;SHT30;60894;42.544;1.516;2022-08-19T08:25:43;18.14;41.09
72772;SHT30;60894;42.544;1.516;2022-08-19T08:28:10;18.29;40.94
72772;SHT30;60894;42.544;1.516;2022-08-19T08:30:37;18.34;40.50
72772;SHT30;60894;42.544;1.516;2022-08-19T08:33:07;18.33;40.02
72772;SHT30;60894;42.544;1.516;2022-08-19T08:35:36;18.47;41.57
72772;SHT30;60894;42.544;1.516;2022-08-19T08:38:03;18.60;41.12
72772;SHT30;60894;42.544;1.516;2022-08-19T08:40:44;18.61;40.78
72772;SHT30;60894;42.544;1.516;2022-08-19T08:43:23;18.80;40.02
72772;SHT30;60894;42.544;1.516;2022-08-19T08:45:56;18.83;39.78
72772;SHT30;60894;42.544;1.516;2022-08-19T08:48:35;18.95;39.59
72772;SHT30;60894;42.544;1.516;2022-08-19T08:51:10;19.21;38.79
72772;SHT30;60894;42.544;1.516;2022-08-19T08:53:39;19.33;38.39
72772;SHT30;60894;42.544;1.516;2022-08-19T08:56:09;19.49;39.19
72772;SHT30;60894;42.544;1.516;2022-08-19T08:58:44;19.62;38.57
72772;SHT30;60894;42.544;1.516;2022-08-19T09:01:12;19.80;37.65
72772;SHT30;60894;42.544;1.516;2022-08-19T09:03:41;19.80;36.65
72772;SHT30;60894;42.544;1.516;2022-08-19T09:06:14;19.93;36.18
72772;SHT30;60894;42.544;1.516;2022-08-19T09:08:49;20.09;35.97
72772;SHT30;60894;42.544;1.516;2022-08-19T09:11:25;20.27;35.98
72772;SHT30;60894;42.544;1.516;2022-08-19T09:14:08;20.35;35.94
72772;SHT30;60894;42.544;1.516;2022-08-19T09:16:38;20.32;34.38
72772;SHT30;60894;42.544;1.516;2022-08-19T09:19:07;20.41;34.13
72772;SHT30;60894;42.544;1.516;2022-08-19T09:21:37;20.58;34.21
72772;SHT30;60894;42.544;1.516;2022-08-19T09:24:05;20.81;34.14
72772;SHT30;60894;42.544;1.516;2022-08-19T09:26:32;20.99;34.00
72772;SHT30;60894;42.544;1.516;2022-08-19T09:29:00;21.14;33.92
72772;SHT30;60894;42.544;1.516;2022-08-19T09:31:29;21.12;33.30
72772;SHT30;60894;42.544;1.516;2022-08-19T09:33:57;21.29;33.11
72772;SHT30;60894;42.544;1.516;2022-08-19T09:36:26;21.30;32.08
72772;SHT30;60894;42.544;1.516;2022-08-19T09:38:55;21.43;32.30
72772;SHT30;60894;42.544;1.516;2022-08-19T09:41:24;21.75;32.83
72772;SHT30;60894;42.544;1.516;2022-08-19T09:43:53;21.84;30.80
72772;SHT30;60894;42.544;1.516;2022-08-19T09:46:21;22.18;31.62
72772;SHT30;60894;42.544;1.516;2022-08-19T09:48:50;22.11;31.30
72772;SHT30;60894;42.544;1.516;2022-08-19T09:51:19;22.13;31.15
72772;SHT30;60894;42.544;1.516;2022-08-19T09:53:47;22.29;30.34
72772;SHT30;60894;42.544;1.516;2022-08-19T09:56:17;22.38;30.28
72772;SHT30;60894;42.544;1.516;2022-08-19T09:58:45;22.31;30.20
72772;SHT30;60894;42.544;1.516;2022-08-19T10:01:20;22.48;29.90
72772;SHT30;60894;42.544;1.516;2022-08-19T10:03:49;22.70;30.09
72772;SHT30;60894;42.544;1.516;2022-08-19T10:06:18;22.90;29.07
72772;SHT30;60894;42.544;1.516;2022-08-19T10:08:45;22.69;29.06
72772;SHT30;60894;42.544;1.516;2022-08-19T10:11:13;22.96;28.83
72772;SHT30;60894;42.544;1.516;2022-08-19T10:13:43;23.13;28.77
72772;SHT30;60894;42.544;1.516;2022-08-19T10:16:14;23.27;28.62
72772;SHT30;60894;42.544;1.516;2022-08-19T10:18:42;23.38;28.24
72772;SHT30;60894;42.544;1.516;2022-08-19T10:21:12;23.55;27.29
72772;SHT30;60894;42.544;1.516;2022-08-19T10:23:41;23.61;27.02
72772;SHT30;60894;42.544;1.516;2022-08-19T10:26:11;23.59;27.07
72772;SHT30;60894;42.544;1.516;2022-08-19T10:28:38;23.69;27.70
72772;SHT30;60894;42.544;1.516;2022-08-19T10:31:10;24.08;27.30
72772;SHT30;60894;42.544;1.516;2022-08-19T10:33:38;24.27;26.89
72772;SHT30;60894;42.544;1.516;2022-08-19T10:36:08;24.52;26.26
72772;SHT30;60894;42.544;1.516;2022-08-19T10:38:35;24.75;26.30
72772;SHT30;60894;42.544;1.516;2022-08-19T10:41:10;25.02;25.09
72772;SHT30;60894;42.544;1.516;2022-08-19T10:43:37;25.43;25.46
72772;SHT30;60894;42.544;1.516;2022-08-19T10:46:07;25.62;25.31
72772;SHT30;60894;42.544;1.516;2022-08-19T10:48:34;25.66;24.61
72772;SHT30;60894;42.544;1.516;2022-08-19T10:51:02;25.74;24.40
72772;SHT30;60894;42.544;1.516;2022-08-19T10:53:46;26.03;24.37
72772;SHT30;60894;42.544;1.516;2022-08-19T10:56:13;25.93;23.56
72772;SHT30;60894;42.544;1.516;2022-08-19T10:58:58;26.12;23.73
72772;SHT30;60894;42.544;1.516;2022-08-19T11:01:27;26.44;23.71
72772;SHT30;60894;42.544;1.516;2022-08-19T11:03:55;26.61;23.38
72772;SHT30;60894;42.544;1.516;2022-08-19T11:06:22;27.17;23.40
72772;SHT30;60894;42.544;1.516;2022-08-19T11:08:51;27.36;22.44
72772;SHT30;60894;42.544;1.516;2022-08-19T11:11:18;27.37;22.04
72772;SHT30;60894;42.544;1.516;2022-08-19T11:13:45;27.17;22.22
72772;SHT30;60894;42.544;1.516;2022-08-19T11:16:14;27.26;22.79
72772;SHT30;60894;42.544;1.516;2022-08-19T11:18:45;27.73;22.27
72772;SHT30;60894;42.544;1.516;2022-08-19T11:21:14;27.51;21.81
72772;SHT30;60894;42.544;1.516;2022-08-19T11:23:43;27.63;21.73
72772;SHT30;60894;42.544;1.516;2022-08-19T11:26:10;27.73;22.25
72772;SHT30;60894;42.544;1.516;2022-08-19T11:28:37;27.87;21.68
72772;SHT30;60894;42.544;1.516;2022-08-19T11:31:09;27.85;21.71
72772;SHT30;60894;42.544;1.516;2022-08-19T11:33:37;28.16;21.76
72772;SHT30;60894;42.544;1.516;2022-08-19T11:36:06;28.11;21.37
72772;SHT30;60894;42.544;1.516;2022-08-19T11:38:33;28.39;21.58
72772;SHT30;60894;42.544;1.516;2022-08-19T11:41:02;28.66;21.62
72772;SHT30;60894;42.544;1.516;2022-08-19T11:43:30;28.69;21.58
72772;SHT30;60894;42.544;1.516;2022-08-19T11:45:58;28.87;21.80
72772;SHT30;60894;42.544;1.516;2022-08-19T11:48:25;28.53;20.82
72772;SHT30;60894;42.544;1.516;2022-08-19T11:50:53;27.94;22.18
72772;SHT30;60894;42.544;1.516;2022-08-19T11:53:23;28.11;21.15
72772;SHT30;60894;42.544;1.516;2022-08-19T11:55:53;28.39;21.68
72772;SHT30;60894;42.544;1.516;2022-08-19T11:58:21;28.75;21.45
72772;SHT30;60894;42.544;1.516;2022-08-19T12:00:48;29.20;20.93
72772;SHT30;60894;42.544;1.516;2022-08-19T12:03:15;29.41;21.36
72772;SHT30;60894;42.544;1.516;2022-08-19T12:05:42;29.00;20.85
72772;SHT30;60894;42.544;1.516;2022-08-19T12:08:09;28.00;21.28
72772;SHT30;60894;42.544;1.516;2022-08-19T12:10:39;27.70;21.45
72772;SHT30;60894;42.544;1.516;2022-08-19T12:13:07;27.63;21.55
72772;SHT30;60894;42.544;1.516;2022-08-19T12:15:35;28.00;21.74
72772;SHT30;60894;42.544;1.516;2022-08-19T12:18:03;28.15;21.02
72772;SHT30;60894;42.544;1.516;2022-08-19T12:20:30;28.65;20.92
72772;SHT30;60894;42.544;1.516;2022-08-19T12:22:57;29.00;20.31
72772;SHT30;60894;42.544;1.516;2022-08-19T12:25:25;29.38;20.12
72772;SHT30;60894;42.544;1.516;2022-08-19T12:27:53;29.45;20.45
72772;SHT30;60894;42.544;1.516;2022-08-19T12:30:20;29.64;20.25
72772;SHT30;60894;42.544;1.516;2022-08-19T12:32:47;29.03;20.28
72772;SHT30;60894;42.544;1.516;2022-08-19T12:35:17;29.54;20.13
72772;SHT30;60894;42.544;1.516;2022-08-19T12:37:46;29.90;19.59
72772;SHT30;60894;42.544;1.516;2022-08-19T12:40:15;30.02;20.10
72772;SHT30;60894;42.544;1.516;2022-08-19T12:42:43;30.59;19.96
72772;SHT30;60894;42.544;1.516;2022-08-19T12:45:12;30.44;18.95
72772;SHT30;60894;42.544;1.516;2022-08-19T12:47:39;30.95;19.42
72772;SHT30;60894;42.544;1.516;2022-08-19T12:50:07;31.31;18.82
72772;SHT30;60894;42.544;1.516;2022-08-19T12:52:35;31.52;19.15
72772;SHT30;60894;42.544;1.516;2022-08-19T12:55:04;31.52;19.04
72772;SHT30;60894;42.544;1.516;2022-08-19T12:57:32;30.95;18.78
72772;SHT30;60894;42.544;1.516;2022-08-19T13:00:05;30.73;19.32
72772;SHT30;60894;42.544;1.516;2022-08-19T13:02:37;31.22;18.94
72772;SHT30;60894;42.544;1.516;2022-08-19T13:05:06;31.59;18.55
72772;SHT30;60894;42.544;1.516;2022-08-19T13:07:34;31.93;18.30
72772;SHT30;60894;42.544;1.516;2022-08-19T13:10:01;31.62;19.25
72772;SHT30;60894;42.544;1.516;2022-08-19T13:12:28;31.77;19.77
72772;SHT30;60894;42.544;1.516;2022-08-19T13:14:55;31.77;19.18
72772;SHT30;60894;42.544;1.516;2022-08-19T13:17:22;31.89;19.74
72772;SHT30;60894;42.544;1.516;2022-08-19T13:19:51;32.28;19.95
72772;SHT30;60894;42.544;1.516;2022-08-19T13:22:18;32.07;18.98
72772;SHT30;60894;42.544;1.516;2022-08-19T13:24:45;32.07;19.06
72772;SHT30;60894;42.544;1.516;2022-08-19T13:27:12;31.66;19.77
72772;SHT30;60894;42.544;1.516;2022-08-19T13:29:39;31.77;20.11
72772;SHT30;60894;42.544;1.516;2022-08-19T13:32:24;31.97;19.79
72772;SHT30;60894;42.544;1.516;2022-08-19T13:35:21;31.62;19.56
72772;SHT30;60894;42.544;1.516;2022-08-19T13:37:48;31.11;20.44
72772;SHT30;60894;42.544;1.516;2022-08-19T13:40:17;31.96;20.95
72772;SHT30;60894;42.544;1.516;2022-08-19T13:42:47;31.73;20.70
72772;SHT30;60894;42.544;1.516;2022-08-19T13:45:15;31.85;21.07
72772;SHT30;60894;42.544;1.516;2022-08-19T13:47:45;31.77;20.97
72772;SHT30;60894;42.544;1.516;2022-08-19T13:50:14;32.00;20.65
72772;SHT30;60894;42.544;1.516;2022-08-19T13:52:43;32.30;20.58
72772;SHT30;60894;42.544;1.516;2022-08-19T13:55:11;31.82;21.25
72772;SHT30;60894;42.544;1.516;2022-08-19T13:57:38;32.33;21.44
72772;SHT30;60894;42.544;1.516;2022-08-19T14:00:07;32.14;21.31
72772;SHT30;60894;42.544;1.516;2022-08-19T14:02:35;31.70;21.77
72772;SHT30;60894;42.544;1.516;2022-08-19T14:05:03;32.14;21.34
72772;SHT30;60894;42.544;1.516;2022-08-19T14:07:31;32.40;21.67
72772;SHT30;60894;42.544;1.516;2022-08-19T14:09:59;32.04;21.92
72772;SHT30;60894;42.544;1.516;2022-08-19T14:12:26;31.79;22.43
72772;SHT30;60894;42.544;1.516;2022-08-19T14:14:53;31.58;22.61
72772;SHT30;60894;42.544;1.516;2022-08-19T14:17:20;31.61;22.77
72772;SHT30;60894;42.544;1.516;2022-08-19T14:19:47;31.49;23.00
72772;SHT30;60894;42.544;1.516;2022-08-19T14:22:14;31.26;23.09
72772;SHT30;60894;42.544;1.516;2022-08-19T14:24:41;31.16;22.80
72772;SHT30;60894;42.544;1.516;2022-08-19T14:27:09;30.90;23.77
72772;SHT30;60894;42.544;1.516;2022-08-19T14:29:36;30.61;23.52
72772;SHT30;60894;42.544;1.516;2022-08-19T14:32:03;30.40;24.16
72772;SHT30;60894;42.544;1.516;2022-08-19T14:34:30;30.26;24.68
72772;SHT30;60894;42.544;1.516;2022-08-19T14:36:59;30.57;23.98
72772;SHT30;60894;42.544;1.516;2022-08-19T14:39:26;30.29;23.97
72772;SHT30;60894;42.544;1.516;2022-08-19T14:41:53;30.48;24.61
72772;SHT30;60894;42.544;1.516;2022-08-19T14:44:21;30.25;24.54
72772;SHT30;60894;42.544;1.516;2022-08-19T14:46:48;30.52;24.56
72772;SHT30;60894;42.544;1.516;2022-08-19T14:49:15;30.43;24.36
72772;SHT30;60894;42.544;1.516;2022-08-19T14:51:43;30.63;24.02
72772;SHT30;60894;42.544;1.516;2022-08-19T14:54:12;30.64;24.27
72772;SHT30;60894;42.544;1.516;2022-08-19T14:56:40;30.47;24.67
72772;SHT30;60894;42.544;1.516;2022-08-19T14:59:06;30.06;24.89
72772;SHT30;60894;42.544;1.516;2022-08-19T15:01:35;30.16;24.83
72772;SHT30;60894;42.544;1.516;2022-08-19T15:04:02;30.25;24.92
72772;SHT30;60894;42.544;1.516;2022-08-19T15:06:29;30.10;25.13
72772;SHT30;60894;42.544;1.516;2022-08-19T15:08:57;30.20;25.20
72772;SHT30;60894;42.544;1.516;2022-08-19T15:11:25;29.89;25.25
72772;SHT30;60894;42.544;1.516;2022-08-19T15:13:53;30.05;25.19
72772;SHT30;60894;42.544;1.516;2022-08-19T15:16:21;30.26;25.35
72772;SHT30;60894;42.544;1.516;2022-08-19T15:18:52;30.12;25.17
72772;SHT30;60894;42.544;1.516;2022-08-19T15:21:20;29.85;25.34
72772;SHT30;60894;42.544;1.516;2022-08-19T15:23:48;29.66;25.72
72772;SHT30;60894;42.544;1.516;2022-08-19T15:26:16;29.76;25.31
72772;SHT30;60894;42.544;1.516;2022-08-19T15:28:44;29.47;25.87
72772;SHT30;60894;42.544;1.516;2022-08-19T15:31:12;29.07;26.04
72772;SHT30;60894;42.544;1.516;2022-08-19T15:33:39;29.33;26.49
72772;SHT30;60894;42.544;1.516;2022-08-19T15:36:11;29.43;26.18
72772;SHT30;60894;42.544;1.516;2022-08-19T15:38:38;29.48;25.87
72772;SHT30;60894;42.544;1.516;2022-08-19T15:41:15;29.64;25.81